Time;durP1;ratioP1;P1;durP2;ratioP2;P2;SDS_P1;SDS_P2;PMS_P1;PMS_P2;Temp;Humidity;BMP_temperature;BMP_pressure;BME280_temperature;BME280_humidity;BME280_pressure;Samples;Min_cycle;Max_cycle;Signal;HPM_P1;HPM_P2
2022/01/26 00:06:25;;;;;;;;;;;2.70;95.00;;;;;;5063759;28;19935;-78
2022/01/26 00:08:52;;;;;;;;;;;2.70;95.00;;;;;;5064296;28;19979;-77
2022/01/26 00:11:18;;;;;;;;;;;2.60;95.00;;;;;;5073005;28;19935;-76
2022/01/26 00:13:45;;;;;;;;;;;2.60;95.00;;;;;;5071305;28;20847;-78
2022/01/26 00:16:22;;;;;;;;;;;2.60;95.00;;;;;;5068888;28;19930;-78
2022/01/26 00:18:49;;;;;;;;;;;2.60;95.00;;;;;;5064287;28;19928;-78
2022/01/26 00:21:25;;;;;;;;;;;2.60;95.00;;;;;;5070114;28;19928;-77
2022/01/26 00:24:10;;;;;;;;;;;2.60;95.00;;;;;;5067257;28;20029;-78
2022/01/26 00:27:00;;;;;;;;;;;2.60;95.30;;;;;;5068422;28;20046;-78
2022/01/26 00:29:24;;;;;;;;;;;2.60;95.00;;;;;;5060746;28;19963;-78
2022/01/26 00:33:06;;;;;;;;;;;2.60;95.00;;;;;;5067105;28;19932;-78
2022/01/26 00:40:23;;;;;;;;;;;2.60;95.00;;;;;;5029440;28;20475;-77
2022/01/26 00:42:52;;;;;;;;;;;2.60;95.00;;;;;;5070561;28;19972;-78
2022/01/26 00:45:23;;;;;;;;;;;2.60;95.00;;;;;;5060851;28;20393;-77
2022/01/26 00:47:49;;;;;;;;;;;2.60;95.00;;;;;;5064887;28;19948;-78
2022/01/26 00:50:17;;;;;;;;;;;2.60;95.10;;;;;;5063719;28;19929;-79
2022/01/26 00:52:46;;;;;;;;;;;2.60;95.10;;;;;;5063551;28;20402;-78
2022/01/26 00:55:13;;;;;;;;;;;2.60;95.10;;;;;;5067073;28;20001;-78
2022/01/26 00:57:41;;;;;;;;;;;2.60;95.10;;;;;;5060030;28;19985;-78
2022/01/26 01:00:09;;;;;;;;;;;2.60;95.10;;;;;;5059378;28;19978;-78
2022/01/26 01:02:36;;;;;;;;;;;2.60;95.10;;;;;;5061559;28;20023;-78
2022/01/26 01:05:11;;;;;;;;;;;2.50;95.10;;;;;;5064789;28;19936;-77
2022/01/26 01:07:39;;;;;;;;;;;2.60;95.10;;;;;;5064593;28;19929;-76
2022/01/26 01:10:07;;;;;;;;;;;2.50;95.10;;;;;;5066853;28;19928;-78
2022/01/26 01:12:39;;;;;;;;;;;2.60;95.20;;;;;;5068602;28;20277;-78
2022/01/26 01:15:08;;;;;;;;;;;2.50;95.10;;;;;;5069270;28;19929;-77
2022/01/26 01:17:39;;;;;;;;;;;2.50;95.10;;;;;;5070735;28;19952;-78
2022/01/26 01:20:15;;;;;;;;;;;2.50;95.20;;;;;;5072797;28;19928;-79
2022/01/26 01:22:58;;;;;;;;;;;2.50;95.20;;;;;;5073984;28;20556;-78
2022/01/26 01:28:21;;;;;;;;;;;2.50;95.20;;;;;;5065803;28;19960;-77
2022/01/26 01:30:53;;;;;;;;;;;2.50;95.20;;;;;;5070947;28;20270;-78
2022/01/26 01:33:24;;;;;;;;;;;2.50;95.20;;;;;;5065966;28;19928;-78
2022/01/26 01:35:51;;;;;;;;;;;2.50;95.20;;;;;;5072021;28;19935;-77
2022/01/26 01:38:20;;;;;;;;;;;2.50;95.20;;;;;;5071874;28;19929;-78
2022/01/26 01:40:48;;;;;;;;;;;2.50;95.30;;;;;;5067644;28;20676;-79
2022/01/26 01:43:15;;;;;;;;;;;2.50;95.30;;;;;;5060686;28;19935;-78
2022/01/26 01:45:44;;;;;;;;;;;2.50;95.60;;;;;;5060042;28;19932;-78
2022/01/26 01:48:16;;;;;;;;;;;2.50;95.20;;;;;;5062004;28;19964;-77
2022/01/26 01:50:42;;;;;;;;;;;2.50;95.30;;;;;;5068118;28;20411;-78
2022/01/26 01:53:09;;;;;;;;;;;2.50;95.30;;;;;;5070720;28;19937;-77
2022/01/26 01:55:38;;;;;;;;;;;2.40;95.30;;;;;;5063310;28;20322;-79
2022/01/26 01:58:05;;;;;;;;;;;2.50;95.30;;;;;;5066902;28;20147;-78
2022/01/26 02:00:32;;;;;;;;;;;2.50;95.30;;;;;;5065001;28;20443;-78
2022/01/26 02:03:00;;;;;;;;;;;2.40;95.30;;;;;;5069123;28;19932;-78
2022/01/26 02:05:28;;;;;;;;;;;2.40;95.30;;;;;;5073772;28;20180;-78
2022/01/26 02:07:54;;;;;;;;;;;2.40;95.30;;;;;;5076120;28;19951;-78
2022/01/26 02:10:23;;;;;;;;;;;2.40;95.30;;;;;;5069850;28;19932;-78
2022/01/26 02:12:52;;;;;;;;;;;2.40;95.30;;;;;;5073693;28;20159;-77
2022/01/26 02:15:23;;;;;;;;;;;2.40;95.30;;;;;;5063725;28;19982;-78
2022/01/26 02:20:50;;;;;;;;;;;2.40;95.30;;;;;;5058012;28;19924;-78
2022/01/26 02:51:07;;;;;;;;;;;2.30;95.40;;;;;;5064190;28;20001;-78
2022/01/26 02:56:26;;;;;;;;;;;2.30;95.40;;;;;;5040521;28;19935;-77
2022/01/26 03:01:48;;;;;;;;;;;2.30;95.40;;;;;;5064217;28;19931;-78
2022/01/26 03:04:21;;;;;;;;;;;2.30;95.40;;;;;;5063767;28;19940;-77
2022/01/26 03:06:55;;;;;;;;;;;2.30;95.50;;;;;;5070694;28;19928;-78
2022/01/26 03:09:28;;;;;;;;;;;2.30;95.50;;;;;;5064257;28;20375;-78
2022/01/26 03:11:55;;;;;;;;;;;2.30;95.50;;;;;;5061469;28;19982;-78
2022/01/26 03:14:31;;;;;;;;;;;2.30;95.50;;;;;;5066734;28;19928;-79
2022/01/26 03:17:02;;;;;;;;;;;2.30;95.50;;;;;;5067968;28;19958;-79
2022/01/26 03:19:36;;;;;;;;;;;2.30;95.50;;;;;;5067239;28;19928;-79
2022/01/26 03:30:29;;;;;;;;;;;2.30;95.50;;;;;;5063175;28;19975;-79
2022/01/26 03:33:10;;;;;;;;;;;2.20;95.60;;;;;;5066416;28;20243;-78
2022/01/26 03:35:43;;;;;;;;;;;2.30;95.60;;;;;;5060420;28;19932;-78
2022/01/26 03:38:17;;;;;;;;;;;2.20;95.60;;;;;;5064070;28;20043;-78
2022/01/26 03:40:46;;;;;;;;;;;2.20;95.60;;;;;;5063782;28;20015;-78
2022/01/26 03:43:12;;;;;;;;;;;2.20;95.90;;;;;;5066424;28;20434;-79
2022/01/26 03:45:39;;;;;;;;;;;2.20;95.60;;;;;;5068440;28;19924;-78
2022/01/26 03:48:05;;;;;;;;;;;2.20;95.60;;;;;;5060052;28;19962;-79
2022/01/26 03:50:32;;;;;;;;;;;2.20;95.60;;;;;;5066077;28;19944;-78
2022/01/26 03:52:59;;;;;;;;;;;2.20;95.60;;;;;;5067492;28;19931;-78
2022/01/26 03:55:25;;;;;;;;;;;2.20;95.60;;;;;;5060827;28;19933;-78
2022/01/26 03:57:53;;;;;;;;;;;2.20;95.60;;;;;;5065703;28;20442;-79
2022/01/26 04:00:19;;;;;;;;;;;2.20;95.60;;;;;;5065736;28;19928;-79
2022/01/26 04:02:47;;;;;;;;;;;2.20;95.60;;;;;;5060423;28;19929;-78
2022/01/26 04:05:14;;;;;;;;;;;2.20;95.70;;;;;;5061151;28;19940;-79
2022/01/26 04:07:42;;;;;;;;;;;2.20;95.70;;;;;;5072681;28;19932;-78
2022/01/26 04:10:18;;;;;;;;;;;2.10;95.60;;;;;;5064528;28;19972;-79
2022/01/26 04:12:44;;;;;;;;;;;2.10;95.60;;;;;;5061632;28;19928;-78
2022/01/26 04:15:21;;;;;;;;;;;2.20;95.70;;;;;;5063367;28;19928;-79
2022/01/26 04:17:48;;;;;;;;;;;2.20;95.70;;;;;;5063496;28;19928;-78
2022/01/26 04:20:15;;;;;;;;;;;2.10;95.70;;;;;;5063960;28;19929;-78
2022/01/26 04:22:51;;;;;;;;;;;2.20;95.70;;;;;;5065008;28;19932;-79
2022/01/26 04:25:22;;;;;;;;;;;2.10;95.70;;;;;;5060414;28;19928;-78
2022/01/26 04:27:52;;;;;;;;;;;2.10;95.70;;;;;;5062188;28;20457;-78
2022/01/26 04:30:20;;;;;;;;;;;2.10;95.70;;;;;;5061491;28;19928;-79
2022/01/26 04:32:46;;;;;;;;;;;2.10;95.70;;;;;;5063716;28;19932;-78
2022/01/26 04:35:13;;;;;;;;;;;2.10;95.70;;;;;;5063626;28;19929;-78
2022/01/26 04:37:59;;;;;;;;;;;2.10;95.70;;;;;;5061270;28;19932;-78
2022/01/26 04:40:30;;;;;;;;;;;2.10;95.70;;;;;;5059291;28;20012;-79
2022/01/26 04:43:02;;;;;;;;;;;2.10;95.70;;;;;;5063236;28;20344;-80
2022/01/26 04:45:30;;;;;;;;;;;2.10;95.70;;;;;;5067594;28;20006;-79
2022/01/26 04:47:56;;;;;;;;;;;2.10;95.70;;;;;;5065672;28;20419;-79
2022/01/26 04:50:23;;;;;;;;;;;2.10;95.70;;;;;;5072911;28;20308;-79
2022/01/26 04:52:50;;;;;;;;;;;2.10;95.70;;;;;;5066462;28;19935;-79
2022/01/26 04:55:16;;;;;;;;;;;2.10;95.70;;;;;;5068868;28;19936;-80
2022/01/26 04:57:43;;;;;;;;;;;2.10;95.70;;;;;;5065886;28;20184;-79
2022/01/26 05:00:10;;;;;;;;;;;2.10;95.70;;;;;;5067497;28;19928;-79
2022/01/26 05:02:37;;;;;;;;;;;2.10;95.70;;;;;;5064297;28;19954;-80
2022/01/26 05:05:04;;;;;;;;;;;2.10;95.70;;;;;;5067746;28;20395;-79
2022/01/26 05:07:31;;;;;;;;;;;2.00;95.70;;;;;;5065960;28;19928;-78
2022/01/26 05:09:58;;;;;;;;;;;2.00;95.70;;;;;;5075593;28;19932;-79
2022/01/26 05:12:25;;;;;;;;;;;2.00;95.70;;;;;;5064653;28;19974;-79
2022/01/26 05:14:51;;;;;;;;;;;2.00;95.70;;;;;;5069076;28;19944;-79
2022/01/26 05:17:22;;;;;;;;;;;2.00;95.70;;;;;;5066070;28;19935;-78
2022/01/26 05:19:55;;;;;;;;;;;2.00;95.70;;;;;;5071891;28;20036;-78
2022/01/26 05:22:22;;;;;;;;;;;2.00;95.70;;;;;;5066338;28;19928;-79
2022/01/26 05:24:49;;;;;;;;;;;2.00;95.70;;;;;;5066878;28;19928;-79
2022/01/26 05:27:15;;;;;;;;;;;2.00;95.70;;;;;;5065633;28;19932;-80
2022/01/26 05:29:42;;;;;;;;;;;2.00;95.80;;;;;;5064957;28;19935;-79
2022/01/26 05:32:08;;;;;;;;;;;2.00;95.80;;;;;;5067346;28;20365;-80
2022/01/26 05:34:35;;;;;;;;;;;2.00;96.10;;;;;;5072220;28;19937;-78
2022/01/26 05:37:03;;;;;;;;;;;2.00;95.80;;;;;;5067093;28;19936;-79
2022/01/26 05:39:31;;;;;;;;;;;2.00;95.70;;;;;;5065082;28;19929;-78
2022/01/26 05:41:58;;;;;;;;;;;2.00;95.70;;;;;;5063436;28;19955;-80
2022/01/26 05:44:24;;;;;;;;;;;2.00;95.70;;;;;;5071222;28;20148;-79
2022/01/26 05:46:51;;;;;;;;;;;2.00;95.80;;;;;;5064357;28;19936;-79
2022/01/26 05:49:18;;;;;;;;;;;1.90;95.80;;;;;;5066014;28;19928;-78
2022/01/26 05:51:46;;;;;;;;;;;1.90;95.70;;;;;;5066477;28;19935;-80
2022/01/26 05:54:15;;;;;;;;;;;2.00;95.80;;;;;;5066703;28;19952;-78
2022/01/26 05:56:42;;;;;;;;;;;1.90;95.80;;;;;;5065184;28;19934;-79
2022/01/26 05:59:08;;;;;;;;;;;1.90;95.80;;;;;;5060102;28;19932;-78
2022/01/26 06:01:35;;;;;;;;;;;1.90;95.80;;;;;;5064562;28;20411;-79
2022/01/26 06:04:02;;;;;;;;;;;1.90;95.80;;;;;;5063648;28;19954;-79
2022/01/26 06:06:28;;;;;;;;;;;1.90;95.80;;;;;;5066077;28;19952;-79
2022/01/26 06:08:55;;;;;;;;;;;1.90;95.80;;;;;;5066004;28;19929;-79
2022/01/26 06:11:23;;;;;;;;;;;1.90;95.80;;;;;;5064281;28;19978;-79
2022/01/26 06:13:49;;;;;;;;;;;1.90;95.80;;;;;;5063653;28;19959;-79
2022/01/26 06:16:16;;;;;;;;;;;1.90;95.80;;;;;;5066868;28;20613;-79
2022/01/26 06:18:43;;;;;;;;;;;1.90;95.80;;;;;;5067425;28;19968;-79
2022/01/26 06:21:10;;;;;;;;;;;1.90;95.80;;;;;;5062815;28;19932;-79
2022/01/26 06:23:36;;;;;;;;;;;1.80;95.60;;;;;;5066916;28;19928;-79
2022/01/26 06:26:03;;;;;;;;;;;1.80;95.70;;;;;;5068866;28;19932;-79
2022/01/26 06:28:31;;;;;;;;;;;1.80;95.80;;;;;;5070652;28;19936;-78
2022/01/26 06:31:00;;;;;;;;;;;1.80;95.90;;;;;;5078083;28;20328;-79
2022/01/26 06:33:26;;;;;;;;;;;1.80;95.90;;;;;;5067435;28;19932;-79
2022/01/26 06:35:55;;;;;;;;;;;1.80;96.00;;;;;;5072513;28;19933;-80
2022/01/26 06:38:24;;;;;;;;;;;1.80;96.00;;;;;;5071531;28;20019;-80
2022/01/26 06:40:51;;;;;;;;;;;1.80;96.00;;;;;;5068357;28;19935;-82
2022/01/26 06:43:18;;;;;;;;;;;1.80;96.00;;;;;;5066661;28;19955;-84
2022/01/26 06:45:50;;;;;;;;;;;1.80;96.00;;;;;;5067075;28;20016;-84
2022/01/26 06:48:41;;;;;;;;;;;1.80;96.00;;;;;;5070469;28;20006;-82
2022/01/26 06:51:07;;;;;;;;;;;1.80;96.00;;;;;;5071844;28;19967;-82
2022/01/26 06:53:34;;;;;;;;;;;1.80;96.00;;;;;;5068410;28;19982;-81
2022/01/26 06:56:00;;;;;;;;;;;1.80;96.00;;;;;;5066260;28;20670;-82
2022/01/26 06:58:27;;;;;;;;;;;1.80;96.00;;;;;;5066002;28;19932;-82
2022/01/26 07:00:57;;;;;;;;;;;1.80;96.00;;;;;;5069933;28;19932;-85
2022/01/26 07:03:23;;;;;;;;;;;1.80;96.00;;;;;;5064159;28;19932;-84
2022/01/26 07:05:50;;;;;;;;;;;1.80;96.00;;;;;;5070353;28;20663;-82
2022/01/26 07:08:16;;;;;;;;;;;1.80;96.00;;;;;;5067528;28;19935;-84
2022/01/26 07:10:44;;;;;;;;;;;1.80;96.00;;;;;;5065131;28;19928;-81
2022/01/26 07:13:11;;;;;;;;;;;1.80;96.00;;;;;;5060072;28;20579;-81
2022/01/26 07:21:23;;;;;;;;;;;1.80;96.00;;;;;;5075094;28;20105;-81
2022/01/26 07:23:49;;;;;;;;;;;1.80;96.00;;;;;;5070069;28;20010;-81
2022/01/26 07:26:16;;;;;;;;;;;1.70;96.00;;;;;;5072938;28;19935;-81
2022/01/26 07:28:43;;;;;;;;;;;1.70;96.00;;;;;;5067208;28;20310;-81
2022/01/26 07:31:10;;;;;;;;;;;1.70;96.00;;;;;;5069703;28;20022;-81
2022/01/26 07:33:39;;;;;;;;;;;1.70;96.00;;;;;;5067399;28;19932;-81
2022/01/26 07:36:06;;;;;;;;;;;1.70;96.00;;;;;;5074815;28;19982;-81
2022/01/26 07:38:32;;;;;;;;;;;1.70;96.00;;;;;;5071232;28;19928;-81
2022/01/26 07:40:59;;;;;;;;;;;1.70;96.00;;;;;;5066824;28;19971;-80
2022/01/26 07:43:26;;;;;;;;;;;1.70;96.00;;;;;;5070136;28;19929;-80
2022/01/26 07:45:52;;;;;;;;;;;1.70;96.00;;;;;;5070756;28;20211;-80
2022/01/26 07:48:19;;;;;;;;;;;1.70;96.00;;;;;;5056398;28;19932;-79
2022/01/26 07:50:50;;;;;;;;;;;1.70;96.00;;;;;;5072110;28;19924;-79
2022/01/26 07:53:17;;;;;;;;;;;1.70;96.00;;;;;;5066367;28;20693;-79
2022/01/26 07:55:44;;;;;;;;;;;1.70;96.00;;;;;;5069136;28;20001;-79
2022/01/26 07:58:11;;;;;;;;;;;1.70;96.00;;;;;;5059800;28;19928;-79
2022/01/26 08:00:38;;;;;;;;;;;1.70;96.00;;;;;;5067981;28;19935;-79
2022/01/26 08:03:04;;;;;;;;;;;1.70;96.00;;;;;;5068315;28;19932;-80
2022/01/26 08:05:31;;;;;;;;;;;1.70;96.00;;;;;;5071164;28;19933;-79
2022/01/26 08:07:59;;;;;;;;;;;1.70;96.00;;;;;;5067817;28;19928;-80
2022/01/26 08:10:26;;;;;;;;;;;1.70;96.00;;;;;;5073660;28;19958;-80
2022/01/26 08:12:52;;;;;;;;;;;1.70;96.00;;;;;;5064546;28;20006;-79
2022/01/26 08:15:19;;;;;;;;;;;1.70;96.00;;;;;;5069186;28;19928;-80
2022/01/26 08:17:46;;;;;;;;;;;1.70;96.00;;;;;;5060163;28;19940;-80
2022/01/26 08:20:12;;;;;;;;;;;1.70;96.00;;;;;;5066153;28;19928;-79
2022/01/26 08:22:39;;;;;;;;;;;1.70;96.00;;;;;;5067991;28;19928;-80
2022/01/26 08:25:10;;;;;;;;;;;1.70;96.00;;;;;;5067857;28;19932;-81
2022/01/26 08:27:41;;;;;;;;;;;1.70;96.00;;;;;;5067232;28;20059;-80
2022/01/26 08:30:10;;;;;;;;;;;1.70;96.10;;;;;;5067966;28;19950;-81
2022/01/26 08:32:37;;;;;;;;;;;1.70;96.10;;;;;;5068528;28;19959;-80
2022/01/26 08:35:03;;;;;;;;;;;1.70;96.00;;;;;;5073689;28;19932;-80
2022/01/26 08:37:30;;;;;;;;;;;1.70;96.10;;;;;;5068098;28;19947;-79
2022/01/26 08:39:57;;;;;;;;;;;1.60;96.00;;;;;;5069312;28;19928;-81
2022/01/26 08:42:25;;;;;;;;;;;1.70;96.00;;;;;;5062692;28;19940;-80
2022/01/26 08:44:52;;;;;;;;;;;1.70;96.10;;;;;;5073948;28;20209;-80
2022/01/26 08:47:19;;;;;;;;;;;1.60;96.10;;;;;;5069517;28;19928;-81
2022/01/26 08:49:45;;;;;;;;;;;1.60;96.10;;;;;;5077822;28;19964;-79
2022/01/26 08:52:12;;;;;;;;;;;1.60;96.10;;;;;;5071931;28;19982;-80
2022/01/26 08:54:39;;;;;;;;;;;1.60;96.10;;;;;;5066282;28;20783;-80
2022/01/26 08:57:05;;;;;;;;;;;1.60;96.10;;;;;;5069210;28;20679;-80
2022/01/26 08:59:33;;;;;;;;;;;1.60;96.10;;;;;;5064662;28;20396;-80
2022/01/26 09:02:00;;;;;;;;;;;1.60;96.10;;;;;;5070063;28;19954;-79
2022/01/26 09:04:26;;;;;;;;;;;1.60;96.10;;;;;;5065639;28;19943;-79
2022/01/26 09:06:55;;;;;;;;;;;1.60;96.10;;;;;;5068002;28;19936;-79
2022/01/26 09:09:22;;;;;;;;;;;1.60;96.10;;;;;;5065630;28;20046;-79
2022/01/26 09:11:49;;;;;;;;;;;1.60;96.10;;;;;;5066158;28;19929;-78
2022/01/26 09:14:20;;;;;;;;;;;1.60;96.10;;;;;;5068864;28;19939;-78
2022/01/26 09:16:49;;;;;;;;;;;1.60;96.10;;;;;;5067515;28;20403;-79
2022/01/26 09:19:26;;;;;;;;;;;1.60;96.10;;;;;;5066943;28;19976;-80
2022/01/26 09:21:53;;;;;;;;;;;1.60;96.10;;;;;;5062640;28;19928;-80
2022/01/26 09:24:19;;;;;;;;;;;1.60;96.50;;;;;;5064055;28;19932;-79
2022/01/26 09:26:46;;;;;;;;;;;1.60;96.20;;;;;;5061439;28;19933;-80
2022/01/26 09:29:12;;;;;;;;;;;1.60;96.20;;;;;;5068999;28;19978;-80
2022/01/26 09:31:39;;;;;;;;;;;1.60;96.20;;;;;;5065145;28;19928;-80
2022/01/26 09:34:07;;;;;;;;;;;1.60;96.20;;;;;;5074513;28;19928;-80
2022/01/26 09:36:33;;;;;;;;;;;1.60;96.20;;;;;;5076337;28;19929;-80
2022/01/26 09:39:00;;;;;;;;;;;1.60;96.20;;;;;;5069720;28;19950;-80
2022/01/26 09:41:27;;;;;;;;;;;1.60;96.20;;;;;;5076281;28;19928;-81
2022/01/26 09:43:53;;;;;;;;;;;1.60;96.20;;;;;;5070687;28;19928;-81
2022/01/26 09:46:20;;;;;;;;;;;1.60;96.20;;;;;;5068521;28;19932;-79
2022/01/26 09:48:46;;;;;;;;;;;1.60;96.20;;;;;;5078494;28;19935;-79
2022/01/26 09:51:16;;;;;;;;;;;1.60;96.20;;;;;;5073593;28;19944;-79
2022/01/26 09:53:43;;;;;;;;;;;1.60;96.20;;;;;;5069426;28;19929;-79
2022/01/26 09:56:09;;;;;;;;;;;1.50;96.20;;;;;;5065525;28;19955;-80
2022/01/26 09:58:36;;;;;;;;;;;1.60;96.20;;;;;;5069575;28;19929;-80
2022/01/26 10:01:04;;;;;;;;;;;1.60;96.20;;;;;;5073174;28;20027;-80
2022/01/26 10:03:33;;;;;;;;;;;1.60;96.20;;;;;;5072718;28;19947;-80
2022/01/26 10:06:00;;;;;;;;;;;1.60;96.10;;;;;;5074044;28;19934;-79
2022/01/26 10:17:23;;;;;;;;;;;1.60;96.10;;;;;;5056776;28;19935;-80
2022/01/26 10:19:56;;;;;;;;;;;1.50;96.10;;;;;;5066812;28;19928;-80
2022/01/26 10:22:26;;;;;;;;;;;1.50;96.10;;;;;;5063497;28;20487;-80
2022/01/26 10:25:03;;;;;;;;;;;1.50;96.10;;;;;;5062318;28;20134;-79
2022/01/26 10:27:35;;;;;;;;;;;1.60;96.10;;;;;;5068196;28;20605;-80
2022/01/26 10:30:04;;;;;;;;;;;1.50;96.10;;;;;;5072054;28;19954;-80
2022/01/26 10:32:32;;;;;;;;;;;1.50;96.10;;;;;;5061434;28;19951;-79
2022/01/26 10:35:00;;;;;;;;;;;1.60;96.10;;;;;;5070245;28;19939;-79
2022/01/26 10:37:27;;;;;;;;;;;1.50;96.10;;;;;;5076216;28;20392;-81
2022/01/26 10:39:56;;;;;;;;;;;1.50;96.10;;;;;;5063257;28;20164;-80
2022/01/26 10:42:25;;;;;;;;;;;1.50;96.10;;;;;;5074617;28;19974;-79
2022/01/26 10:45:03;;;;;;;;;;;1.50;96.10;;;;;;5063458;28;20016;-80
2022/01/26 10:47:34;;;;;;;;;;;1.50;96.00;;;;;;5063016;28;19928;-80
2022/01/26 10:50:29;;;;;;;;;;;1.50;96.00;;;;;;5070668;28;20277;-79
2022/01/26 10:53:04;;;;;;;;;;;1.50;96.00;;;;;;5063077;28;19939;-80
2022/01/26 10:55:31;;;;;;;;;;;1.50;96.00;;;;;;5061894;28;19960;-80
2022/01/26 10:58:00;;;;;;;;;;;1.50;96.00;;;;;;5065176;28;20213;-80
2022/01/26 11:00:26;;;;;;;;;;;1.50;96.00;;;;;;5063677;28;20396;-80
2022/01/26 11:02:57;;;;;;;;;;;1.50;96.00;;;;;;5056049;28;20136;-80
2022/01/26 11:05:24;;;;;;;;;;;1.50;96.00;;;;;;5074097;28;19975;-80
2022/01/26 11:07:53;;;;;;;;;;;1.50;96.00;;;;;;5067441;28;21285;-80
2022/01/26 11:10:23;;;;;;;;;;;1.50;96.00;;;;;;5065371;28;20633;-80
2022/01/26 11:12:50;;;;;;;;;;;1.50;96.00;;;;;;5072227;28;20055;-80
2022/01/26 11:15:18;;;;;;;;;;;1.50;96.00;;;;;;5062881;28;19933;-80
2022/01/26 11:17:46;;;;;;;;;;;1.50;96.00;;;;;;5063548;28;19928;-79
2022/01/26 11:20:18;;;;;;;;;;;1.60;96.10;;;;;;5070229;28;19982;-79
2022/01/26 11:22:48;;;;;;;;;;;1.50;96.00;;;;;;5069161;28;19928;-80
2022/01/26 11:25:15;;;;;;;;;;;1.50;96.00;;;;;;5069911;28;19932;-79
2022/01/26 11:27:42;;;;;;;;;;;1.50;96.00;;;;;;5068967;28;19932;-80
2022/01/26 11:30:16;;;;;;;;;;;1.50;96.10;;;;;;5069649;28;19932;-80
2022/01/26 11:32:50;;;;;;;;;;;1.50;96.10;;;;;;5066600;28;20017;-79
2022/01/26 11:35:18;;;;;;;;;;;1.60;96.10;;;;;;5072932;28;19933;-79
2022/01/26 11:37:48;;;;;;;;;;;1.50;96.10;;;;;;5069492;28;19929;-80
2022/01/26 11:46:05;;;;;;;;;;;1.60;96.10;;;;;;5064530;28;20061;-80
2022/01/26 11:48:33;;;;;;;;;;;1.60;96.20;;;;;;5068665;28;19954;-80
2022/01/26 11:51:01;;;;;;;;;;;1.50;96.10;;;;;;5068250;28;19929;-80
2022/01/26 11:53:28;;;;;;;;;;;1.50;96.10;;;;;;5066731;28;20327;-79
2022/01/26 11:56:02;;;;;;;;;;;1.60;96.10;;;;;;5061124;28;19959;-80
2022/01/26 11:58:30;;;;;;;;;;;1.50;96.10;;;;;;5073871;28;19975;-80
2022/01/26 12:01:11;;;;;;;;;;;1.60;96.10;;;;;;5065111;28;19998;-79
2022/01/26 12:03:46;;;;;;;;;;;1.50;96.10;;;;;;5063539;28;19928;-80
2022/01/26 12:06:18;;;;;;;;;;;1.60;96.10;;;;;;5074848;28;19928;-79
2022/01/26 12:08:45;;;;;;;;;;;1.50;96.10;;;;;;5064358;28;19929;-79
2022/01/26 12:11:12;;;;;;;;;;;1.60;96.10;;;;;;5064097;28;19935;-79
2022/01/26 12:13:40;;;;;;;;;;;1.60;96.10;;;;;;5066849;28;20338;-80
2022/01/26 12:16:10;;;;;;;;;;;1.60;96.10;;;;;;5066186;28;19925;-80
2022/01/26 12:18:42;;;;;;;;;;;1.50;96.10;;;;;;5061997;28;19938;-80
2022/01/26 12:32:38;;;;;;;;;;;1.60;96.20;;;;;;5062578;28;19931;-80
2022/01/26 12:35:18;;;;;;;;;;;1.60;96.20;;;;;;5068237;28;19941;-80
2022/01/26 12:43:20;;;;;;;;;;;1.60;96.10;;;;;;5068900;28;19935;-79
2022/01/26 12:45:47;;;;;;;;;;;1.60;96.20;;;;;;5066811;28;20129;-80
2022/01/26 12:48:14;;;;;;;;;;;1.60;96.20;;;;;;5063920;28;19928;-80
2022/01/26 12:50:41;;;;;;;;;;;1.60;96.20;;;;;;5068236;28;20489;-79
2022/01/26 12:53:09;;;;;;;;;;;1.60;96.20;;;;;;5064448;28;19928;-80
2022/01/26 12:55:37;;;;;;;;;;;1.60;96.20;;;;;;5061374;28;19928;-80
2022/01/26 12:58:04;;;;;;;;;;;1.60;96.20;;;;;;5061100;28;19932;-80
2022/01/26 13:00:40;;;;;;;;;;;1.60;96.20;;;;;;5065328;28;19936;-80
2022/01/26 13:03:11;;;;;;;;;;;1.60;96.20;;;;;;5061951;28;19933;-80
2022/01/26 13:05:37;;;;;;;;;;;1.60;96.20;;;;;;5071566;28;19950;-80
2022/01/26 13:08:04;;;;;;;;;;;1.60;96.20;;;;;;5063510;28;19928;-79
2022/01/26 13:10:33;;;;;;;;;;;1.60;96.20;;;;;;5068248;28;19933;-79
2022/01/26 13:13:09;;;;;;;;;;;1.60;96.20;;;;;;5063724;28;19940;-80
2022/01/26 13:15:42;;;;;;;;;;;1.60;96.20;;;;;;5068494;28;20005;-80
2022/01/26 13:18:25;;;;;;;;;;;1.60;96.20;;;;;;5062970;28;19928;-80
2022/01/26 13:23:55;;;;;;;;;;;1.60;96.20;;;;;;5059636;28;19939;-80
2022/01/26 13:26:33;;;;;;;;;;;1.60;96.20;;;;;;5068571;28;19971;-78
2022/01/26 13:29:14;;;;;;;;;;;1.60;96.20;;;;;;5067429;28;19936;-78
2022/01/26 13:32:10;;;;;;;;;;;1.60;96.60;;;;;;5070461;28;20019;-80
2022/01/26 13:34:53;;;;;;;;;;;1.70;96.80;;;;;;5067881;28;20030;-80
2022/01/26 13:37:30;;;;;;;;;;;1.70;96.90;;;;;;5072700;28;20624;-80
2022/01/26 13:40:10;;;;;;;;;;;1.80;97.00;;;;;;5066465;28;19933;-81
2022/01/26 13:51:11;;;;;;;;;;;2.10;97.20;;;;;;5043031;28;19988;-80
2022/01/26 13:53:45;;;;;;;;;;;2.20;97.10;;;;;;5046471;28;20019;-79
2022/01/26 13:56:16;;;;;;;;;;;2.30;97.00;;;;;;5056079;28;19929;-79
2022/01/26 13:59:02;;;;;;;;;;;2.20;96.90;;;;;;5067361;28;20015;-79
2022/01/26 14:01:28;;;;;;;;;;;2.30;96.80;;;;;;5074268;28;19992;-80
2022/01/26 14:04:01;;;;;;;;;;;2.30;96.60;;;;;;5074450;28;19928;-80
2022/01/26 14:06:28;;;;;;;;;;;2.40;96.60;;;;;;5072564;28;19940;-79
2022/01/26 14:08:54;;;;;;;;;;;2.40;96.50;;;;;;5070417;28;19982;-80
2022/01/26 14:11:21;;;;;;;;;;;2.50;96.40;;;;;;5068696;28;19974;-80
2022/01/26 14:13:51;;;;;;;;;;;2.50;96.30;;;;;;5071484;28;20434;-79
2022/01/26 14:16:19;;;;;;;;;;;2.50;96.20;;;;;;5068522;28;19941;-80
2022/01/26 14:19:00;;;;;;;;;;;2.50;96.10;;;;;;5067452;28;19936;-79
2022/01/26 14:21:41;;;;;;;;;;;2.50;96.00;;;;;;5072880;28;20259;-79
2022/01/26 14:26:45;;;;;;;;;;;2.60;95.90;;;;;;5073494;28;19928;-80
2022/01/26 14:29:29;;;;;;;;;;;2.60;95.80;;;;;;5070404;28;20003;-80
2022/01/26 14:32:08;;;;;;;;;;;2.60;95.80;;;;;;5071464;28;19929;-79
2022/01/26 14:51:11;;;;;;;;;;;2.70;95.50;;;;;;5068801;28;19935;-80
2022/01/26 15:35:21;;;;;;;;;;;2.70;95.00;;;;;;5057982;28;20009;-79
2022/01/26 15:40:46;;;;;;;;;;;2.60;95.00;;;;;;5061933;28;19939;-79
2022/01/26 15:43:35;;;;;;;;;;;2.60;95.00;;;;;;5065544;28;19928;-80
2022/01/26 15:48:53;;;;;;;;;;;2.60;95.00;;;;;;5068490;28;19935;-80
2022/01/26 15:51:48;;;;;;;;;;;2.60;95.00;;;;;;5067527;28;19975;-80
2022/01/26 15:57:32;;;;;;;;;;;2.60;95.00;;;;;;5058197;28;19985;-79
2022/01/26 16:08:30;;;;;;;;;;;2.60;95.00;;;;;;5022052;28;19959;-80
2022/01/26 16:28:19;;;;;;;;;;;2.60;94.90;;;;;;5062803;28;19938;-79
2022/01/26 16:39:05;;;;;;;;;;;2.60;94.90;;;;;;5063517;28;20001;-80
2022/01/26 16:53:07;;;;;;;;;;;2.50;94.90;;;;;;5062563;28;19931;-80
2022/01/26 18:04:14;;;;;;;;;;;2.40;94.90;;;;;;5065687;28;20319;-81
2022/01/26 18:18:01;;;;;;;;;;;2.30;94.90;;;;;;5062616;28;19931;-80
2022/01/26 18:50:29;;;;;;;;;;;2.20;94.80;;;;;;5077719;28;19955;-81
2022/01/26 18:52:57;;;;;;;;;;;2.20;94.90;;;;;;5067237;28;19940;-81
2022/01/26 18:55:24;;;;;;;;;;;2.20;94.90;;;;;;5066359;28;19932;-81
2022/01/26 18:57:50;;;;;;;;;;;2.20;94.80;;;;;;5066972;28;20633;-81
2022/01/26 19:00:17;;;;;;;;;;;2.20;94.90;;;;;;5068533;28;19935;-82
2022/01/26 19:02:44;;;;;;;;;;;2.20;94.90;;;;;;5066857;28;20300;-81
2022/01/26 19:05:12;;;;;;;;;;;2.20;94.90;;;;;;5069285;28;19928;-80
2022/01/26 19:07:38;;;;;;;;;;;2.20;94.80;;;;;;5071810;28;19935;-81
2022/01/26 19:10:07;;;;;;;;;;;2.20;94.80;;;;;;5070207;28;19928;-81
2022/01/26 19:12:36;;;;;;;;;;;2.20;94.80;;;;;;5063710;28;19928;-78
2022/01/26 19:15:08;;;;;;;;;;;2.20;94.80;;;;;;5069538;28;20281;-81
2022/01/26 19:17:36;;;;;;;;;;;2.20;94.80;;;;;;5047216;28;19982;-81
2022/01/26 19:20:16;;;;;;;;;;;2.20;94.80;;;;;;5046721;28;19936;-81
2022/01/26 19:22:57;;;;;;;;;;;2.20;94.80;;;;;;5046542;28;20534;-81
2022/01/26 19:25:29;;;;;;;;;;;2.20;94.80;;;;;;5043297;28;19933;-80
2022/01/26 19:28:03;;;;;;;;;;;2.20;94.80;;;;;;5048217;28;20665;-80
2022/01/26 19:31:31;;;;;;;;;;;2.20;94.80;;;;;;5050058;28;19925;-80
2022/01/26 19:47:17;;;;;;;;;;;2.10;94.80;;;;;;5065358;28;20440;-81
2022/01/26 19:52:27;;;;;;;;;;;2.10;94.80;;;;;;5068154;28;19930;-80
2022/01/26 19:54:54;;;;;;;;;;;2.10;94.80;;;;;;5066895;28;19928;-80
2022/01/26 19:57:22;;;;;;;;;;;2.10;94.80;;;;;;5061228;28;19928;-80
2022/01/26 19:59:49;;;;;;;;;;;2.10;94.80;;;;;;5064857;28;19990;-80
2022/01/26 20:02:16;;;;;;;;;;;2.10;94.80;;;;;;5065071;28;19928;-81
2022/01/26 20:04:42;;;;;;;;;;;2.00;94.80;;;;;;5069426;28;19928;-81
2022/01/26 20:07:14;;;;;;;;;;;2.00;94.80;;;;;;5069367;28;19939;-82
2022/01/26 20:09:44;;;;;;;;;;;2.10;94.80;;;;;;5064556;28;20329;-80
2022/01/26 20:12:20;;;;;;;;;;;2.00;94.80;;;;;;5063626;28;19928;-81
2022/01/26 20:14:48;;;;;;;;;;;2.00;94.80;;;;;;5063182;28;19982;-81
2022/01/26 20:17:14;;;;;;;;;;;2.00;94.80;;;;;;5069158;28;19966;-82
2022/01/26 20:19:41;;;;;;;;;;;2.00;94.80;;;;;;5065877;28;19977;-81
2022/01/26 20:22:08;;;;;;;;;;;2.00;94.80;;;;;;5067905;28;19936;-81
2022/01/26 20:24:35;;;;;;;;;;;2.00;94.90;;;;;;5062436;28;20252;-82
2022/01/26 20:27:05;;;;;;;;;;;2.00;94.90;;;;;;5070718;28;20293;-81
2022/01/26 20:29:36;;;;;;;;;;;2.00;94.80;;;;;;5061257;28;19931;-81
2022/01/26 20:32:05;;;;;;;;;;;2.00;94.80;;;;;;5065177;28;19954;-81
2022/01/26 20:34:32;;;;;;;;;;;2.00;94.80;;;;;;5075226;28;19935;-81